Time;durP1;ratioP1;P1;durP2;ratioP2;P2;SDS_P1;SDS_P2;PMS_P1;PMS_P2;Temp;Humidity;BMP_temperature;BMP_pressure;BME280_temperature;BME280_humidity;BME280_pressure;Samples;Min_cycle;Max_cycle;Signal;HPM_P1;HPM_P2
2021/10/21 00:02:23;;;;;;;6.43;2.78;;;21.20;70.20;;;;;;4970883;28;88049;-66
2021/10/21 00:04:51;;;;;;;3.55;2.42;;;21.20;70.20;;;;;;4969841;28;87464;-65
2021/10/21 00:07:17;;;;;;;5.07;2.20;;;21.20;70.20;;;;;;4940532;28;89937;-66
2021/10/21 00:09:43;;;;;;;3.35;2.30;;;21.20;70.20;;;;;;4969375;28;89075;-66
2021/10/21 00:12:09;;;;;;;4.65;2.05;;;21.20;70.20;;;;;;4970949;28;88077;-66
2021/10/21 00:14:35;;;;;;;6.00;2.38;;;21.20;70.30;;;;;;4969314;28;88510;-66
2021/10/21 00:17:01;;;;;;;5.90;2.28;;;21.20;70.30;;;;;;4971158;28;88099;-68
2021/10/21 00:19:27;;;;;;;4.80;2.80;;;21.20;70.30;;;;;;4968329;28;89208;-66
2021/10/21 00:21:53;;;;;;;3.88;2.00;;;21.20;70.30;;;;;;4970212;28;87992;-65
2021/10/21 00:24:19;;;;;;;5.88;2.50;;;21.20;70.30;;;;;;4970141;28;87862;-66
2021/10/21 00:26:46;;;;;;;2.90;2.20;;;21.20;70.30;;;;;;4970831;28;87845;-65
2021/10/21 00:29:11;;;;;;;3.35;2.03;;;21.20;70.40;;;;;;4952695;28;89399;-66
2021/10/21 00:31:37;;;;;;;3.63;1.92;;;21.20;70.40;;;;;;4969988;28;90232;-66
2021/10/21 00:34:03;;;;;;;5.75;2.70;;;21.20;70.40;;;;;;4971339;28;88087;-65
2021/10/21 00:36:31;;;;;;;3.20;1.95;;;21.10;70.40;;;;;;4970263;28;89819;-67
2021/10/21 00:38:58;;;;;;;3.20;1.98;;;21.10;70.40;;;;;;4940962;28;90446;-65
2021/10/21 00:41:24;;;;;;;3.30;2.20;;;21.10;70.30;;;;;;4952073;28;89712;-65
2021/10/21 00:43:50;;;;;;;5.75;2.28;;;21.10;70.30;;;;;;4969286;28;88137;-66
2021/10/21 00:46:16;;;;;;;4.97;2.15;;;21.10;70.20;;;;;;4970703;28;88156;-65
2021/10/21 00:48:42;;;;;;;3.85;2.05;;;21.10;70.40;;;;;;4968067;28;89260;-66
2021/10/21 00:51:12;;;;;;;4.82;2.10;;;21.10;70.20;;;;;;4952399;28;88610;-67
2021/10/21 00:53:39;;;;;;;4.20;2.17;;;21.10;70.10;;;;;;4969926;28;87594;-66
2021/10/21 00:56:08;;;;;;;4.63;2.15;;;21.10;70.00;;;;;;4951433;28;88648;-66
2021/10/21 00:58:34;;;;;;;4.85;2.53;;;21.10;70.00;;;;;;4968388;28;88344;-65
2021/10/21 01:01:01;;;;;;;3.95;2.28;;;21.10;69.90;;;;;;4967902;28;89558;-66
2021/10/21 01:03:27;;;;;;;4.43;2.70;;;21.10;69.90;;;;;;4969804;28;88580;-66
2021/10/21 01:05:53;;;;;;;4.15;2.05;;;21.10;69.80;;;;;;4964344;28;89046;-66
2021/10/21 01:08:19;;;;;;;3.47;2.38;;;21.10;69.80;;;;;;4959373;28;91325;-65
2021/10/21 01:10:46;;;;;;;2.30;1.90;;;21.10;69.80;;;;;;4969216;28;90824;-66
2021/10/21 01:13:11;;;;;;;2.28;1.90;;;21.10;69.80;;;;;;4968372;28;87397;-65
2021/10/21 01:15:37;;;;;;;3.63;2.08;;;21.10;69.70;;;;;;4971104;28;87637;-65
2021/10/21 01:18:03;;;;;;;3.83;1.60;;;21.10;69.70;;;;;;4942158;28;91653;-66
2021/10/21 01:20:29;;;;;;;6.32;2.10;;;21.00;69.60;;;;;;4969792;28;89000;-65
2021/10/21 01:22:55;;;;;;;3.45;1.75;;;21.00;69.50;;;;;;4970153;28;87662;-65
2021/10/21 01:25:21;;;;;;;3.67;2.47;;;21.00;69.50;;;;;;4968135;28;87982;-65
2021/10/21 01:27:49;;;;;;;3.15;1.70;;;21.00;69.50;;;;;;4967586;28;90179;-66
2021/10/21 01:30:26;;;;;;;4.38;2.17;;;21.00;69.50;;;;;;4951555;28;92346;-65
2021/10/21 01:32:56;;;;;;;4.50;2.42;;;21.00;69.50;;;;;;4969282;28;87802;-66
2021/10/21 01:35:22;;;;;;;2.78;1.88;;;21.00;69.40;;;;;;4969019;28;87147;-65
2021/10/21 01:37:48;;;;;;;3.40;1.90;;;21.00;69.40;;;;;;4969128;28;87923;-66
2021/10/21 01:40:16;;;;;;;3.45;2.05;;;21.00;69.40;;;;;;4950792;28;90635;-67
2021/10/21 01:42:42;;;;;;;3.83;2.30;;;21.00;69.30;;;;;;4967647;28;87610;-65
2021/10/21 01:45:32;;;;;;;3.72;2.17;;;21.00;69.30;;;;;;4951092;28;89096;-64
2021/10/21 01:48:00;;;;;;;4.10;1.80;;;21.00;69.30;;;;;;4966161;28;90818;-67
2021/10/21 01:50:29;;;;;;;3.72;1.88;;;21.00;69.20;;;;;;4951104;28;88971;-66
2021/10/21 01:52:54;;;;;;;2.17;1.80;;;21.00;69.20;;;;;;4950205;28;89314;-64
2021/10/21 01:55:20;;;;;;;3.20;1.52;;;20.90;69.20;;;;;;4969571;28;88012;-66
2021/10/21 01:57:47;;;;;;;2.67;1.90;;;20.90;69.10;;;;;;4969590;28;88084;-66
2021/10/21 02:00:18;;;;;;;3.15;1.65;;;21.00;69.20;;;;;;4969411;28;87887;-66
2021/10/21 02:02:45;;;;;;;3.40;2.08;;;20.90;69.20;;;;;;4951253;28;87327;-66
2021/10/21 02:05:12;;;;;;;3.25;2.05;;;20.90;69.10;;;;;;4968362;28;88057;-69
2021/10/21 02:07:38;;;;;;;3.55;2.22;;;20.90;69.10;;;;;;4951450;28;90912;-66
2021/10/21 02:10:08;;;;;;;4.05;1.88;;;20.90;69.20;;;;;;4969699;28;87489;-65
2021/10/21 02:12:34;;;;;;;5.43;1.85;;;20.90;69.10;;;;;;4969392;28;88003;-65
2021/10/21 02:15:00;;;;;;;3.20;1.85;;;20.90;69.10;;;;;;4951422;28;90262;-65
2021/10/21 02:17:26;;;;;;;2.13;1.70;;;20.90;69.10;;;;;;4968820;28;89831;-66
2021/10/21 02:19:52;;;;;;;2.83;1.40;;;20.90;69.20;;;;;;4969035;28;88838;-65
2021/10/21 02:22:19;;;;;;;2.33;1.48;;;20.90;69.10;;;;;;4967756;28;87936;-66
2021/10/21 02:24:47;;;;;;;2.60;1.60;;;20.90;69.10;;;;;;4951824;28;88749;-66
2021/10/21 02:27:13;;;;;;;2.70;1.67;;;20.90;69.10;;;;;;4966660;28;89264;-65
2021/10/21 02:29:39;;;;;;;4.15;1.70;;;20.80;69.10;;;;;;4967090;28;89139;-65
2021/10/21 02:32:05;;;;;;;2.80;1.55;;;20.80;69.10;;;;;;4969945;28;87478;-65
2021/10/21 02:34:31;;;;;;;3.60;1.60;;;20.80;69.10;;;;;;4967706;28;90238;-65
2021/10/21 02:36:58;;;;;;;2.83;1.95;;;20.80;69.10;;;;;;4950897;28;90956;-66
2021/10/21 02:39:24;;;;;;;2.47;1.80;;;20.80;69.10;;;;;;4966943;28;89176;-67
2021/10/21 02:41:49;;;;;;;3.65;1.52;;;20.80;69.10;;;;;;4968836;28;88518;-66
2021/10/21 02:44:15;;;;;;;3.90;1.70;;;20.80;69.10;;;;;;4967307;28;88869;-65
2021/10/21 02:46:41;;;;;;;2.58;1.20;;;20.80;69.10;;;;;;4966592;28;91079;-67
2021/10/21 02:49:07;;;;;;;2.63;1.80;;;20.80;69.10;;;;;;4969145;28;87746;-66
2021/10/21 02:51:32;;;;;;;3.85;1.35;;;20.70;69.00;;;;;;4968864;28;88091;-66
2021/10/21 02:53:58;;;;;;;3.45;1.40;;;20.70;69.00;;;;;;4969384;28;88085;-65
2021/10/21 02:56:24;;;;;;;1.70;1.38;;;20.70;69.00;;;;;;4968985;28;88502;-66
2021/10/21 02:58:49;;;;;;;2.47;1.33;;;20.70;69.10;;;;;;4969322;28;87851;-64
2021/10/21 03:01:17;;;;;;;6.40;1.88;;;20.70;69.00;;;;;;4972989;28;87876;-66
2021/10/21 03:03:43;;;;;;;2.80;1.60;;;20.70;69.00;;;;;;4954453;28;88347;-67
2021/10/21 03:06:08;;;;;;;1.58;1.30;;;20.70;69.00;;;;;;4971799;28;89312;-66
2021/10/21 03:08:34;;;;;;;2.80;2.00;;;20.70;69.10;;;;;;4972102;28;88585;-67
2021/10/21 03:11:00;;;;;;;2.75;1.40;;;20.70;69.00;;;;;;4971426;28;87688;-66
2021/10/21 03:13:26;;;;;;;4.80;1.55;;;20.70;69.10;;;;;;4972152;28;87198;-67
2021/10/21 03:15:53;;;;;;;3.35;1.52;;;20.70;69.00;;;;;;4971502;28;88551;-66
2021/10/21 03:18:19;;;;;;;2.83;1.55;;;20.70;69.10;;;;;;4971868;28;87811;-66
2021/10/21 03:20:44;;;;;;;3.35;1.55;;;20.70;69.00;;;;;;4972518;28;87768;-67
2021/10/21 03:23:11;;;;;;;3.67;1.67;;;20.70;69.60;;;;;;4971359;28;86872;-67
2021/10/21 03:25:37;;;;;;;2.88;1.58;;;20.70;69.00;;;;;;4940305;28;89542;-68
2021/10/21 03:28:03;;;;;;;4.13;1.52;;;20.70;69.00;;;;;;4971664;28;87721;-67
2021/10/21 03:30:29;;;;;;;3.95;1.58;;;20.70;69.00;;;;;;4971109;28;89228;-65
2021/10/21 03:32:54;;;;;;;3.00;1.50;;;20.70;69.40;;;;;;4972435;28;87313;-66
2021/10/21 03:35:20;;;;;;;2.97;1.55;;;20.60;69.10;;;;;;4971362;28;88236;-66
2021/10/21 03:37:46;;;;;;;3.15;1.55;;;20.60;69.10;;;;;;4971778;28;87832;-65
2021/10/21 03:40:13;;;;;;;2.47;1.80;;;20.60;69.10;;;;;;4953989;28;87171;-65
2021/10/21 03:42:39;;;;;;;5.05;1.40;;;20.60;69.10;;;;;;4971616;28;87637;-65
2021/10/21 03:45:05;;;;;;;2.80;1.20;;;20.60;69.10;;;;;;4971559;28;88348;-65
2021/10/21 03:47:32;;;;;;;2.05;1.25;;;20.60;69.10;;;;;;4969360;28;92705;-65
2021/10/21 03:49:57;;;;;;;2.67;1.48;;;20.60;69.20;;;;;;4953061;28;87463;-65
2021/10/21 03:52:23;;;;;;;2.28;1.63;;;20.60;69.10;;;;;;4971098;28;87836;-67
2021/10/21 03:54:49;;;;;;;3.10;1.70;;;20.60;69.10;;;;;;4970796;28;88164;-67
2021/10/21 03:57:16;;;;;;;3.03;1.60;;;20.60;69.10;;;;;;4969121;28;92464;-66
2021/10/21 03:59:43;;;;;;;2.65;1.48;;;20.60;69.00;;;;;;4940257;28;87697;-66
2021/10/21 04:02:09;;;;;;;3.90;1.70;;;20.60;69.00;;;;;;4969901;28;88344;-67
2021/10/21 04:04:35;;;;;;;1.75;1.45;;;20.60;69.00;;;;;;4970279;28;89518;-66
2021/10/21 04:07:01;;;;;;;3.22;1.40;;;20.50;68.90;;;;;;4971560;28;87144;-66
2021/10/21 04:09:27;;;;;;;2.08;1.45;;;20.60;69.00;;;;;;4969823;28;87265;-65
2021/10/21 04:11:53;;;;;;;4.50;1.30;;;20.60;68.90;;;;;;4952558;28;88074;-66
2021/10/21 04:14:18;;;;;;;2.35;1.23;;;20.50;68.80;;;;;;4971439;28;87988;-65
2021/10/21 04:16:44;;;;;;;1.63;1.13;;;20.50;68.80;;;;;;4971011;28;88054;-65
2021/10/21 04:19:11;;;;;;;2.63;1.40;;;20.50;68.80;;;;;;4970246;28;88951;-67
2021/10/21 04:21:36;;;;;;;1.88;1.00;;;20.50;68.70;;;;;;4971109;28;87638;-66
2021/10/21 04:24:02;;;;;;;5.90;1.23;;;20.50;68.70;;;;;;4970677;28;88112;-65
2021/10/21 04:26:28;;;;;;;2.63;1.27;;;20.50;68.70;;;;;;4970439;28;87506;-66
2021/10/21 04:28:54;;;;;;;4.20;1.38;;;20.50;68.70;;;;;;4970440;28;87240;-67
2021/10/21 04:31:19;;;;;;;1.70;1.00;;;20.50;68.70;;;;;;4970733;28;88083;-67
2021/10/21 04:33:45;;;;;;;2.45;1.27;;;20.50;68.60;;;;;;4970931;28;88200;-67
2021/10/21 04:36:13;;;;;;;3.22;1.75;;;20.50;68.60;;;;;;4970901;28;87830;-68
2021/10/21 04:38:38;;;;;;;1.88;1.25;;;20.50;68.60;;;;;;4967863;28;88784;-67
2021/10/21 04:41:04;;;;;;;3.42;1.20;;;20.50;68.50;;;;;;4970835;28;87413;-67
2021/10/21 04:43:30;;;;;;;2.17;1.30;;;20.50;68.40;;;;;;4970277;28;89358;-67
2021/10/21 04:45:55;;;;;;;2.00;1.10;;;20.50;68.30;;;;;;4968638;28;91707;-67
2021/10/21 04:48:21;;;;;;;4.10;1.52;;;20.50;68.20;;;;;;4970027;28;87818;-68
2021/10/21 04:50:47;;;;;;;2.22;1.10;;;20.50;68.00;;;;;;4970261;28;88224;-66
2021/10/21 04:53:12;;;;;;;2.00;1.00;;;20.50;67.90;;;;;;4969979;28;89058;-67
2021/10/21 04:55:38;;;;;;;2.72;1.52;;;20.50;67.80;;;;;;4952270;28;91011;-67
2021/10/21 04:58:05;;;;;;;2.08;1.38;;;20.50;67.70;;;;;;4968400;28;87657;-65
2021/10/21 05:00:35;;;;;;;1.40;0.98;;;20.50;67.50;;;;;;4968764;28;89603;-67
2021/10/21 05:03:08;;;;;;;1.90;1.00;;;20.50;67.40;;;;;;4968641;28;91423;-66
2021/10/21 05:05:35;;;;;;;1.58;1.05;;;20.50;67.20;;;;;;4941711;28;91103;-67
2021/10/21 05:08:01;;;;;;;4.32;1.30;;;20.50;67.00;;;;;;4952970;28;88190;-66
2021/10/21 05:10:27;;;;;;;3.50;1.35;;;20.50;66.90;;;;;;4969912;28;89687;-69
2021/10/21 05:12:52;;;;;;;3.10;1.27;;;20.50;66.70;;;;;;4972152;28;88615;-68
2021/10/21 05:15:18;;;;;;;2.92;1.17;;;20.50;66.60;;;;;;4970114;28;87931;-68
2021/10/21 05:17:44;;;;;;;1.45;1.10;;;20.50;66.50;;;;;;4969216;28;87299;-68
2021/10/21 05:20:10;;;;;;;1.77;1.08;;;20.50;66.40;;;;;;4969044;28;87790;-67
2021/10/21 05:22:36;;;;;;;4.13;1.17;;;20.50;66.30;;;;;;4943002;28;89430;-66
2021/10/21 05:25:04;;;;;;;2.20;1.20;;;20.50;66.20;;;;;;4970250;28;87987;-67
2021/10/21 05:27:29;;;;;;;2.30;0.80;;;20.40;66.00;;;;;;4970255;28;88152;-65
2021/10/21 05:29:55;;;;;;;3.40;1.02;;;20.40;65.80;;;;;;4970842;28;87162;-68
2021/10/21 05:32:21;;;;;;;1.52;0.80;;;20.50;65.80;;;;;;4969227;28;88779;-66
2021/10/21 05:34:46;;;;;;;2.33;0.90;;;20.40;65.60;;;;;;4968640;28;89142;-66
2021/10/21 05:37:12;;;;;;;1.83;0.93;;;20.50;65.60;;;;;;4969798;28;87324;-66
2021/10/21 05:39:38;;;;;;;2.28;0.90;;;20.40;65.70;;;;;;4970188;28;87646;-68
2021/10/21 05:42:04;;;;;;;4.95;1.42;;;20.40;65.70;;;;;;4969303;28;88111;-67
2021/10/21 05:44:30;;;;;;;2.10;0.98;;;20.40;65.90;;;;;;4969764;28;87406;-71
2021/10/21 05:46:56;;;;;;;4.22;1.20;;;20.40;65.90;;;;;;4951887;28;87179;-72
2021/10/21 05:49:22;;;;;;;3.83;0.93;;;20.40;66.00;;;;;;4952479;28;88088;-68
2021/10/21 05:51:51;;;;;;;21.60;3.95;;;20.40;66.00;;;;;;4952493;28;90222;-68
2021/10/21 05:54:16;;;;;;;83.53;11.88;;;20.40;66.00;;;;;;4969585;28;88127;-69
2021/10/21 05:56:43;;;;;;;76.20;13.18;;;20.40;66.10;;;;;;4969078;28;88618;-69
2021/10/21 05:59:09;;;;;;;103.68;15.23;;;20.40;66.00;;;;;;4966934;28;88142;-67
2021/10/21 06:01:35;;;;;;;76.68;13.90;;;20.40;66.00;;;;;;4968345;28;89471;-71
2021/10/21 06:04:00;;;;;;;83.95;13.73;;;20.40;66.00;;;;;;4939955;28;90719;-68
2021/10/21 06:06:26;;;;;;;80.13;13.73;;;20.40;66.00;;;;;;4966384;28;88202;-67
2021/10/21 06:08:52;;;;;;;69.15;10.77;;;20.40;65.90;;;;;;4968597;28;87330;-66
2021/10/21 06:11:17;;;;;;;65.95;10.15;;;20.40;66.50;;;;;;4968451;28;88197;-67
2021/10/21 06:13:43;;;;;;;49.67;9.25;;;20.40;67.20;;;;;;4968997;28;88770;-64
2021/10/21 06:16:09;;;;;;;55.90;11.20;;;20.40;67.80;;;;;;4969469;28;88347;-70
2021/10/21 06:18:35;;;;;;;46.15;8.95;;;20.40;67.70;;;;;;4966958;28;89577;-64
2021/10/21 06:21:06;;;;;;;40.40;9.18;;;20.40;67.90;;;;;;4951454;28;90222;-67
2021/10/21 06:23:33;;;;;;;38.45;8.50;;;20.40;68.00;;;;;;4972623;28;89988;-70
2021/10/21 06:25:59;;;;;;;40.78;8.68;;;20.40;68.50;;;;;;4970443;28;87574;-70
2021/10/21 06:28:25;;;;;;;43.95;9.13;;;20.40;68.40;;;;;;4968869;28;88100;-69
2021/10/21 06:30:50;;;;;;;37.15;8.80;;;20.30;68.50;;;;;;4969523;28;88248;-71
2021/10/21 06:33:16;;;;;;;43.33;9.50;;;20.30;68.50;;;;;;4969563;28;87667;-73
2021/10/21 06:35:44;;;;;;;37.25;7.57;;;20.30;68.60;;;;;;4954095;28;88128;-65
2021/10/21 06:38:10;;;;;;;28.80;7.20;;;20.30;68.60;;;;;;4955286;28;90326;-69
2021/10/21 06:40:36;;;;;;;34.05;7.50;;;20.30;68.50;;;;;;4972875;28;89466;-72
2021/10/21 06:43:02;;;;;;;25.88;7.03;;;20.40;68.50;;;;;;4954795;28;91560;-67
2021/10/21 06:45:28;;;;;;;33.22;7.40;;;20.40;68.50;;;;;;4962208;28;89593;-67
2021/10/21 06:47:54;;;;;;;29.20;7.20;;;20.40;68.30;;;;;;4970999;28;87491;-63
2021/10/21 06:50:20;;;;;;;20.52;5.65;;;20.50;68.20;;;;;;4969635;28;89355;-65
2021/10/21 06:52:47;;;;;;;26.38;6.35;;;20.50;68.10;;;;;;4971413;28;88279;-63
2021/10/21 06:55:14;;;;;;;34.75;7.25;;;20.50;67.90;;;;;;4971191;28;87965;-65
2021/10/21 06:57:46;;;;;;;31.38;7.18;;;20.50;67.80;;;;;;4970821;28;88233;-66
2021/10/21 07:00:12;;;;;;;28.02;6.57;;;20.60;67.70;;;;;;4942265;28;91019;-66
2021/10/21 07:02:45;;;;;;;23.67;5.68;;;20.50;67.60;;;;;;4972108;28;87343;-65
2021/10/21 07:05:12;;;;;;;26.70;5.57;;;20.50;67.50;;;;;;4970427;28;88994;-67
2021/10/21 07:07:39;;;;;;;22.20;6.43;;;20.60;67.50;;;;;;4970605;28;88022;-66
2021/10/21 07:10:06;;;;;;;18.27;5.38;;;20.60;67.40;;;;;;4968763;28;89017;-63
2021/10/21 07:12:39;;;;;;;27.98;7.65;;;20.60;67.30;;;;;;4970676;28;91173;-63
2021/10/21 07:15:07;;;;;;;24.92;6.20;;;20.60;67.30;;;;;;4925890;28;88112;-65
2021/10/21 07:17:33;;;;;;;26.08;5.30;;;20.60;67.20;;;;;;4949693;28;88210;-62
2021/10/21 07:19:59;;;;;;;24.90;5.78;;;20.60;67.10;;;;;;4951128;28;87694;-66
2021/10/21 07:22:25;;;;;;;21.73;5.60;;;20.60;67.00;;;;;;4950145;28;89610;-64
2021/10/21 07:24:51;;;;;;;26.67;6.90;;;20.60;67.00;;;;;;4952071;28;87305;-64
2021/10/21 07:27:17;;;;;;;24.95;5.90;;;20.60;66.90;;;;;;4950519;28;87571;-65
2021/10/21 07:29:43;;;;;;;20.63;5.40;;;20.60;66.90;;;;;;4952125;28;88077;-63
2021/10/21 07:32:09;;;;;;;21.48;6.00;;;20.70;66.90;;;;;;4953449;28;88547;-66
2021/10/21 07:34:35;;;;;;;21.10;5.55;;;20.70;66.80;;;;;;4955961;28;89796;-63
2021/10/21 07:37:02;;;;;;;18.90;5.68;;;20.70;66.80;;;;;;4952332;28;87790;-65
2021/10/21 07:39:27;;;;;;;17.75;5.45;;;20.60;66.70;;;;;;4957158;28;87741;-65
2021/10/21 07:42:00;;;;;;;19.80;5.40;;;20.60;66.70;;;;;;4955822;28;88083;-64
2021/10/21 07:44:26;;;;;;;13.13;4.37;;;20.60;66.70;;;;;;4956718;28;87533;-63
2021/10/21 07:46:52;;;;;;;22.83;5.40;;;20.60;66.70;;;;;;4949029;28;88685;-66
2021/10/21 07:49:17;;;;;;;25.25;5.40;;;20.60;66.60;;;;;;4955329;28;89101;-66
2021/10/21 07:51:43;;;;;;;18.10;5.05;;;20.70;66.60;;;;;;4952077;28;87830;-65
2021/10/21 07:54:12;;;;;;;20.20;5.60;;;20.60;66.50;;;;;;4951972;28;88018;-65
2021/10/21 07:56:38;;;;;;;25.15;5.45;;;20.70;66.60;;;;;;4952170;28;87261;-65
2021/10/21 07:59:04;;;;;;;19.35;5.22;;;20.60;66.80;;;;;;4956040;28;89165;-65
2021/10/21 08:01:29;;;;;;;19.35;5.50;;;20.70;66.50;;;;;;4949440;28;88444;-65
2021/10/21 08:03:56;;;;;;;19.75;5.35;;;20.60;66.50;;;;;;4952625;28;87813;-63
2021/10/21 08:06:21;;;;;;;15.52;5.25;;;20.60;66.50;;;;;;4957391;28;87581;-63
2021/10/21 08:08:48;;;;;;;12.27;4.38;;;20.60;66.50;;;;;;4952559;28;87268;-63
2021/10/21 08:11:14;;;;;;;16.42;4.65;;;20.60;66.50;;;;;;4951554;28;87938;-65
2021/10/21 08:13:40;;;;;;;15.35;5.15;;;20.60;66.40;;;;;;4951896;28;87519;-65
2021/10/21 08:16:06;;;;;;;15.90;4.28;;;20.60;66.40;;;;;;4951904;28;86682;-65
2021/10/21 08:18:32;;;;;;;18.17;5.25;;;20.60;66.40;;;;;;4954900;28;88210;-63
2021/10/21 08:20:58;;;;;;;14.82;4.10;;;20.60;66.40;;;;;;4954000;28;87778;-65
2021/10/21 08:23:24;;;;;;;17.35;4.75;;;20.60;66.40;;;;;;4954256;28;88946;-66
2021/10/21 08:25:49;;;;;;;20.02;4.57;;;20.50;66.40;;;;;;4953530;28;90043;-66
2021/10/21 08:28:15;;;;;;;16.30;4.85;;;20.60;66.40;;;;;;4952282;28;88230;-66
2021/10/21 08:30:43;;;;;;;14.15;4.32;;;20.50;66.40;;;;;;4955179;28;87961;-67
2021/10/21 08:33:11;;;;;;;18.20;4.82;;;20.50;66.40;;;;;;4954206;28;87519;-71
2021/10/21 08:35:37;;;;;;;15.77;4.72;;;20.50;66.30;;;;;;4951019;28;88337;-63
2021/10/21 08:38:03;;;;;;;13.88;4.32;;;20.60;66.40;;;;;;4953241;28;88085;-65
2021/10/21 08:40:30;;;;;;;17.13;4.93;;;20.50;66.30;;;;;;4951695;28;87199;-66
2021/10/21 08:42:56;;;;;;;15.52;4.38;;;20.50;66.30;;;;;;4952642;28;87866;-64
2021/10/21 08:45:23;;;;;;;11.50;4.07;;;20.50;66.30;;;;;;4944928;28;87788;-66
2021/10/21 08:47:50;;;;;;;17.65;4.70;;;20.50;66.90;;;;;;4947168;28;88958;-67
2021/10/21 08:50:17;;;;;;;12.55;3.63;;;20.50;67.40;;;;;;4950179;28;88767;-64
2021/10/21 08:52:46;;;;;;;10.40;3.35;;;20.60;67.80;;;;;;4950017;28;87200;-63
2021/10/21 08:55:13;;;;;;;15.63;4.72;;;20.60;67.80;;;;;;4950007;28;88342;-64
2021/10/21 08:57:39;;;;;;;14.52;4.60;;;20.60;67.70;;;;;;4955623;28;88184;-63
2021/10/21 09:00:06;;;;;;;16.88;4.28;;;20.70;67.60;;;;;;4941255;28;88619;-67
2021/10/21 09:02:40;;;;;;;14.70;4.55;;;20.70;67.40;;;;;;4950384;28;87562;-63
2021/10/21 09:08:00;;;;;;;14.73;4.68;;;20.60;67.20;;;;;;4954497;28;88653;-64
2021/10/21 09:10:26;;;;;;;12.35;3.90;;;20.70;67.10;;;;;;4932177;28;90666;-62
2021/10/21 09:12:52;;;;;;;12.60;3.83;;;20.70;67.00;;;;;;4935165;28;88570;-65
2021/10/21 09:15:22;;;;;;;12.90;3.60;;;20.70;66.90;;;;;;4935141;28;89804;-63
2021/10/21 09:17:49;;;;;;;13.63;4.35;;;20.80;67.40;;;;;;4934853;28;91401;-69
2021/10/21 09:20:38;;;;;;;13.25;4.10;;;20.80;66.80;;;;;;4932277;28;90975;-67
2021/10/21 09:23:08;;;;;;;12.35;3.78;;;20.80;66.80;;;;;;4950116;28;87827;-69
2021/10/21 09:25:35;;;;;;;12.63;4.00;;;20.80;66.70;;;;;;4937434;28;88316;-66
2021/10/21 09:28:14;;;;;;;15.40;4.43;;;20.80;66.60;;;;;;4949990;28;88498;-74
2021/10/21 09:30:54;;;;;;;12.63;3.70;;;20.80;66.70;;;;;;4954146;28;87308;-66
2021/10/21 09:33:20;;;;;;;10.63;3.58;;;20.80;66.40;;;;;;4952565;28;89336;-67
2021/10/21 09:35:55;;;;;;;13.57;3.92;;;20.80;66.50;;;;;;4951376;28;87988;-69
2021/10/21 09:38:27;;;;;;;11.60;4.18;;;20.90;66.30;;;;;;4948595;28;90168;-66
2021/10/21 09:40:55;;;;;;;12.35;3.33;;;20.90;66.10;;;;;;4935248;28;88933;-68
2021/10/21 09:43:35;;;;;;;15.77;3.75;;;20.90;66.00;;;;;;4954248;28;88525;-68
2021/10/21 09:46:02;;;;;;;7.85;3.22;;;20.90;65.90;;;;;;4952279;28;88115;-70
2021/10/21 09:48:28;;;;;;;9.95;3.13;;;20.90;65.80;;;;;;4933339;28;90186;-71
2021/10/21 09:50:54;;;;;;;9.60;3.08;;;20.90;65.70;;;;;;4950394;28;90575;-69
2021/10/21 09:53:31;;;;;;;8.30;2.95;;;20.90;65.50;;;;;;4950674;28;87879;-71
2021/10/21 09:56:03;;;;;;;10.90;3.53;;;20.90;65.50;;;;;;4954904;28;87426;-67
2021/10/21 09:58:34;;;;;;;12.40;3.67;;;20.90;65.50;;;;;;4934197;28;91048;-68
2021/10/21 10:01:14;;;;;;;10.73;3.25;;;20.90;65.50;;;;;;4952605;28;88272;-70
2021/10/21 10:03:43;;;;;;;10.80;3.50;;;20.90;65.50;;;;;;4933301;28;88560;-65
2021/10/21 10:06:10;;;;;;;11.68;3.33;;;20.90;65.40;;;;;;4959226;28;90210;-70
2021/10/21 10:08:36;;;;;;;8.40;3.15;;;20.90;65.90;;;;;;4949972;28;88362;-67
2021/10/21 10:11:06;;;;;;;10.35;3.30;;;20.90;65.20;;;;;;4934280;28;91144;-70
2021/10/21 10:13:31;;;;;;;11.27;3.60;;;20.90;65.20;;;;;;4959935;28;87456;-70
2021/10/21 10:15:57;;;;;;;10.40;3.00;;;20.90;65.20;;;;;;4951703;28;87604;-69
2021/10/21 10:18:29;;;;;;;7.97;3.10;;;20.80;65.20;;;;;;4949406;28;88888;-70
2021/10/21 10:21:18;;;;;;;10.90;3.20;;;20.80;65.30;;;;;;4955748;28;88098;-71
2021/10/21 10:23:56;;;;;;;15.80;3.40;;;20.80;65.30;;;;;;4949476;28;88152;-73
2021/10/21 10:26:54;;;;;;;12.40;3.67;;;20.80;65.60;;;;;;4952136;28;87711;-73
2021/10/21 10:29:45;;;;;;;10.45;3.33;;;20.80;65.90;;;;;;4949587;28;89239;-71
2021/10/21 10:32:32;;;;;;;8.93;3.13;;;20.80;66.00;;;;;;4946865;28;90787;-71
2021/10/21 10:35:00;;;;;;;9.27;2.60;;;20.80;65.90;;;;;;4949763;28;87692;-68
2021/10/21 10:37:26;;;;;;;7.97;2.83;;;20.80;66.10;;;;;;4951202;28;88321;-62
2021/10/21 10:39:56;;;;;;;10.40;3.22;;;20.80;66.20;;;;;;4950232;28;88011;-60
2021/10/21 10:42:43;;;;;;;8.10;2.88;;;20.80;66.30;;;;;;4937422;28;91186;-64
2021/10/21 10:45:10;;;;;;;9.32;2.55;;;20.80;66.40;;;;;;4944631;28;87879;-65
2021/10/21 10:47:58;;;;;;;8.20;3.35;;;20.80;66.50;;;;;;4934354;28;88652;-65
2021/10/21 10:50:26;;;;;;;8.80;2.85;;;20.80;66.50;;;;;;4952124;28;87749;-64
2021/10/21 10:53:01;;;;;;;7.82;2.75;;;20.80;66.50;;;;;;4948958;28;88677;-66
2021/10/21 10:55:40;;;;;;;10.95;2.95;;;20.80;66.40;;;;;;4946311;28;88830;-62
2021/10/21 10:58:23;;;;;;;9.98;3.05;;;20.80;66.50;;;;;;4949484;28;88032;-73
2021/10/21 11:00:58;;;;;;;6.45;2.58;;;20.80;66.40;;;;;;4946343;28;91225;-65
2021/10/21 11:03:42;;;;;;;9.82;3.20;;;20.80;66.30;;;;;;4947355;28;88070;-65
2021/10/21 11:06:13;;;;;;;;;;;20.80;66.50;;;;;;4937087;28;87964;-66
2021/10/21 11:08:58;;;;;;;10.20;2.85;;;20.80;66.40;;;;;;4960413;28;87795;-66
2021/10/21 11:11:36;;;;;;;10.02;3.53;;;20.80;66.60;;;;;;4948465;28;88155;-64
2021/10/21 11:14:08;;;;;;;9.65;3.40;;;20.80;66.60;;;;;;4952083;28;87293;-68
2021/10/21 11:16:46;;;;;;;6.82;2.53;;;20.80;66.40;;;;;;4937659;28;88066;-64
2021/10/21 11:19:36;;;;;;;7.55;2.78;;;20.80;66.40;;;;;;4949993;28;88390;-67
2021/10/21 11:22:01;;;;;;;7.45;2.67;;;20.80;66.50;;;;;;4954947;28;89192;-67
2021/10/21 11:24:49;;;;;;;10.40;3.15;;;20.80;66.40;;;;;;4953821;28;89808;-72
2021/10/21 11:27:18;;;;;;;7.97;2.90;;;20.90;66.30;;;;;;4952420;28;87684;-71
2021/10/21 11:29:47;;;;;;;6.35;2.42;;;20.90;66.10;;;;;;4934031;28;88116;-75
2021/10/21 11:32:14;;;;;;;8.27;2.78;;;20.90;66.00;;;;;;4955103;28;89420;-70
2021/10/21 11:34:40;;;;;;;13.98;2.67;;;20.90;65.70;;;;;;4938697;28;91591;-64
2021/10/21 11:37:06;;;;;;;7.20;2.40;;;21.00;65.60;;;;;;4953961;28;88113;-76
2021/10/21 11:39:38;;;;;;;12.40;2.33;;;20.90;65.40;;;;;;4955023;28;87029;-67
2021/10/21 11:42:08;;;;;;;6.78;2.42;;;21.00;65.30;;;;;;4953210;28;91457;-74
2021/10/21 11:44:35;;;;;;;5.85;2.33;;;21.00;65.10;;;;;;4940067;28;91195;-74
2021/10/21 11:47:03;;;;;;;6.15;2.15;;;21.00;65.00;;;;;;4936184;28;88159;-70
2021/10/21 11:49:31;;;;;;;6.15;2.13;;;20.90;64.80;;;;;;4953131;28;88075;-72
2021/10/21 11:52:11;;;;;;;8.65;2.95;;;20.90;64.70;;;;;;4949544;28;89464;-69
2021/10/21 11:54:39;;;;;;;7.30;2.00;;;21.00;65.00;;;;;;4936413;28;91430;-68
2021/10/21 11:57:06;;;;;;;7.20;2.40;;;20.90;65.10;;;;;;4951690;28;87881;-70
2021/10/21 11:59:40;;;;;;;7.78;2.42;;;20.80;65.00;;;;;;4953124;28;88541;-70
2021/10/21 12:02:07;;;;;;;7.70;2.28;;;20.80;65.10;;;;;;4938118;28;89123;-63
2021/10/21 12:04:32;;;;;;;8.25;2.25;;;20.70;65.00;;;;;;4953293;28;91063;-68
2021/10/21 12:06:58;;;;;;;4.75;1.70;;;20.80;65.00;;;;;;4958191;28;87441;-66
2021/10/21 12:09:25;;;;;;;5.55;1.98;;;20.80;65.30;;;;;;4957791;28;88323;-66
2021/10/21 12:12:06;;;;;;;6.57;2.35;;;20.80;65.30;;;;;;4952278;28;88572;-71
2021/10/21 12:14:36;;;;;;;7.82;2.13;;;20.80;65.40;;;;;;4948976;28;89580;-68
2021/10/21 12:17:03;;;;;;;5.78;1.80;;;20.80;65.30;;;;;;4955776;28;89157;-68
2021/10/21 12:19:29;;;;;;;8.15;2.30;;;20.80;65.40;;;;;;4949995;28;90368;-65
2021/10/21 12:22:16;;;;;;;6.43;2.13;;;20.80;66.00;;;;;;4960676;28;87854;-67
2021/10/21 12:24:43;;;;;;;6.32;1.83;;;20.80;65.30;;;;;;4960365;28;88199;-67
2021/10/21 12:27:19;;;;;;;5.80;2.00;;;20.80;65.30;;;;;;4953439;28;88031;-66
2021/10/21 12:29:45;;;;;;;6.82;2.00;;;20.70;65.20;;;;;;4940517;28;90582;-65
2021/10/21 12:32:19;;;;;;;5.47;1.88;;;20.70;65.20;;;;;;4948234;28;90223;-66
2021/10/21 12:34:47;;;;;;;3.92;1.77;;;20.70;65.20;;;;;;4948485;28;90982;-71
2021/10/21 12:37:18;;;;;;;6.57;1.80;;;20.70;65.20;;;;;;4931658;28;89420;-69
2021/10/21 12:39:44;;;;;;;6.90;1.88;;;20.70;65.00;;;;;;4956685;28;87616;-68
2021/10/21 12:42:21;;;;;;;6.25;1.73;;;20.80;64.90;;;;;;4935238;28;91404;-71
2021/10/21 12:44:55;;;;;;;5.82;1.65;;;20.80;64.70;;;;;;4937148;28;90960;-71
2021/10/21 12:47:24;;;;;;;5.38;1.70;;;20.90;64.60;;;;;;4936977;28;87666;-70
2021/10/21 12:50:11;;;;;;;5.10;1.60;;;20.90;64.40;;;;;;4953230;28;87739;-69
2021/10/21 12:52:44;;;;;;;4.78;1.67;;;21.00;64.20;;;;;;4953663;28;92313;-71